createdAt,value
2019-02-06T00:02:14.343Z,101427.34
2019-02-06T00:04:53.624Z,101426.77
2019-02-06T00:07:33.055Z,101429.13
2019-02-06T00:10:12.716Z,101431.91
2019-02-06T00:12:51.903Z,101427.38
2019-02-06T00:15:31.480Z,101426.17
2019-02-06T00:18:11.326Z,101424.62
2019-02-06T00:20:53.501Z,101427.36
2019-02-06T00:23:32.713Z,101431.60
2019-02-06T00:26:12.067Z,101429.63
2019-02-06T00:28:51.309Z,101429.48
2019-02-06T00:31:30.577Z,101432.55
2019-02-06T00:34:09.845Z,101439.12
2019-02-06T00:36:49.207Z,101433.30
2019-02-06T00:39:28.361Z,101430.15
2019-02-06T00:42:07.597Z,101434.75
2019-02-06T00:44:47.189Z,101429.12
2019-02-06T00:47:27.730Z,101435.27
2019-02-06T00:50:08.952Z,101429.23
2019-02-06T00:52:49.237Z,101434.30
2019-02-06T00:55:29.442Z,101430.55
2019-02-06T00:58:08.704Z,101425.75
2019-02-06T01:00:48.753Z,101425.94
2019-02-06T01:03:27.895Z,101426.97
2019-02-06T01:06:07.764Z,101433.21
2019-02-06T01:08:48.663Z,101429.45
2019-02-06T01:11:27.791Z,101433.39
2019-02-06T01:14:07.124Z,101433.95
2019-02-06T01:16:46.330Z,101432.25
2019-02-06T01:19:26.206Z,101433.86
2019-02-06T01:22:05.460Z,101435.29
2019-02-06T01:24:44.693Z,101432.11
2019-02-06T01:27:24.434Z,101432.17
2019-02-06T01:30:04.213Z,101432.03
2019-02-06T01:32:44.536Z,101429.06
2019-02-06T01:35:24.382Z,101430.98
2019-02-06T01:38:03.574Z,101432.95
2019-02-06T01:40:44.701Z,101431.33
2019-02-06T01:43:23.985Z,101429.34
2019-02-06T01:46:03.254Z,101428.56
2019-02-06T01:48:42.472Z,101433.05
2019-02-06T01:51:22.235Z,101431.28
2019-02-06T01:54:02.204Z,101427.06
2019-02-06T01:56:41.640Z,101426.94
2019-02-06T01:59:20.969Z,101429.16
2019-02-06T02:02:01.017Z,101421.02
2019-02-06T02:04:40.247Z,101416.34
2019-02-06T02:07:20.144Z,101413.72
2019-02-06T02:10:01.771Z,101411.69
2019-02-06T02:12:41.121Z,101410.23
2019-02-06T02:15:20.627Z,101406.07
2019-02-06T02:18:00.071Z,101402.23
2019-02-06T02:20:39.370Z,101402.05
2019-02-06T02:23:18.560Z,101403.67
2019-02-06T02:25:58.661Z,101399.54
2019-02-06T02:28:37.952Z,101403.25
2019-02-06T02:31:17.282Z,101404.30
2019-02-06T02:33:56.921Z,101392.34
2019-02-06T02:36:36.238Z,101391.66
2019-02-06T02:39:15.447Z,101394.78
2019-02-06T02:41:54.676Z,101396.11
2019-02-06T02:44:33.830Z,101396.67
2019-02-06T02:47:13.136Z,101397.72
2019-02-06T02:49:53.182Z,101390.36
2019-02-06T02:52:32.750Z,101388.98
2019-02-06T02:55:12.195Z,101391.32
2019-02-06T02:57:51.392Z,101392.37
2019-02-06T03:00:46.623Z,101387.30
2019-02-06T03:03:48.388Z,101381.45
2019-02-06T03:06:28.707Z,101381.39
2019-02-06T03:09:13.170Z,101381.16
2019-02-06T03:11:53.682Z,101382.78
2019-02-06T03:14:33.352Z,101382.00
2019-02-06T03:17:13.869Z,101378.51
2019-02-06T03:19:53.006Z,101380.23
2019-02-06T03:22:33.147Z,101373.98
2019-02-06T03:25:13.496Z,101374.94
2019-02-06T03:27:56.810Z,101376.22
2019-02-06T03:33:39.411Z,101383.64
2019-02-06T03:36:19.242Z,101381.77
2019-02-06T03:38:58.942Z,101377.45
2019-02-06T03:41:38.194Z,101370.78
2019-02-06T03:44:17.978Z,101369.12
2019-02-06T03:46:57.191Z,101369.63
2019-02-06T03:49:36.438Z,101366.06
2019-02-06T03:52:15.745Z,101365.82
2019-02-06T03:54:55.026Z,101368.97
2019-02-06T03:57:34.270Z,101371.16
2019-02-06T04:00:15.817Z,101370.36
2019-02-06T04:02:55.867Z,101370.72
2019-02-06T04:05:35.184Z,101371.23
2019-02-06T04:08:14.554Z,101371.56
2019-02-06T04:10:53.787Z,101366.78
2019-02-06T04:13:33.707Z,101367.30
2019-02-06T04:16:12.954Z,101370.65
2019-02-06T04:18:53.324Z,101364.44
2019-02-06T04:21:32.841Z,101363.88
2019-02-06T04:24:14.318Z,101366.64
2019-02-06T04:26:55.754Z,101369.48
2019-02-06T04:29:34.913Z,101377.38
2019-02-06T04:32:14.756Z,101378.10
2019-02-06T04:34:54.420Z,101381.34
2019-02-06T04:37:33.784Z,101382.66
2019-02-06T04:40:17.123Z,101373.94
2019-02-06T04:42:56.623Z,101376.19
2019-02-06T04:45:35.900Z,101375.27
2019-02-06T04:48:15.071Z,101367.17
2019-02-06T04:50:54.991Z,101363.70
2019-02-06T04:53:34.803Z,101358.10
2019-02-06T04:56:14.532Z,101356.81
2019-02-06T04:58:53.778Z,101358.28
2019-02-06T05:01:33.013Z,101362.84
2019-02-06T05:04:12.763Z,101362.27
2019-02-06T05:06:52.156Z,101360.07
2019-02-06T05:09:31.732Z,101361.70
2019-02-06T05:12:11.476Z,101357.13
2019-02-06T05:14:50.591Z,101355.08
2019-02-06T05:17:30.476Z,101350.73
2019-02-06T05:20:23.531Z,101351.80
2019-02-06T05:23:03.247Z,101348.74
2019-02-06T05:25:42.701Z,101356.23
2019-02-06T05:28:22.045Z,101362.16
2019-02-06T05:31:01.388Z,101359.13
2019-02-06T05:33:41.912Z,101357.64
2019-02-06T05:36:21.171Z,101357.05
2019-02-06T05:39:00.418Z,101362.48
2019-02-06T05:41:39.740Z,101360.80
2019-02-06T05:44:19.584Z,101360.35
2019-02-06T05:47:01.069Z,101358.38
2019-02-06T05:49:40.283Z,101365.21
2019-02-06T05:52:19.562Z,101367.09
2019-02-06T05:55:04.756Z,101363.63
2019-02-06T05:57:43.857Z,101369.52
2019-02-06T06:00:35.572Z,101369.88
2019-02-06T06:03:14.766Z,101363.22
2019-02-06T06:05:54.051Z,101366.94
2019-02-06T06:08:33.762Z,101372.34
2019-02-06T06:11:13.272Z,101370.09
2019-02-06T06:13:52.517Z,101374.63
2019-02-06T06:16:31.668Z,101372.56
2019-02-06T06:19:11.417Z,101371.19
2019-02-06T06:21:53.132Z,101371.46
2019-02-06T06:24:33.927Z,101368.14
2019-02-06T06:27:13.315Z,101367.05
2019-02-06T06:29:53.050Z,101375.75
2019-02-06T06:32:34.619Z,101376.69
2019-02-06T06:35:14.078Z,101373.63
2019-02-06T06:37:59.409Z,101378.01
2019-02-06T06:40:34.753Z,101374.98
2019-02-06T06:43:33.157Z,101377.48
2019-02-06T06:46:12.294Z,101377.85
2019-02-06T06:48:51.443Z,101382.57
2019-02-06T06:51:30.575Z,101388.15
2019-02-06T06:54:10.591Z,101382.97
2019-02-06T06:56:52.691Z,101388.47
2019-02-06T06:59:33.450Z,101388.98
2019-02-06T07:02:16.390Z,101388.80
2019-02-06T07:04:56.099Z,101386.80
2019-02-06T07:07:35.318Z,101387.45
2019-02-06T07:10:15.386Z,101390.89
2019-02-06T07:12:57.652Z,101397.16
2019-02-06T07:15:36.888Z,101391.99
2019-02-06T07:18:16.179Z,101383.19
2019-02-06T07:20:55.686Z,101391.28
2019-02-06T07:23:35.430Z,101384.95
2019-02-06T07:26:14.560Z,101385.67
2019-02-06T07:28:53.963Z,101391.06
2019-02-06T07:31:33.842Z,101399.48
2019-02-06T07:34:13.008Z,101395.67
2019-02-06T07:36:52.234Z,101393.80
2019-02-06T07:39:31.466Z,101395.09
2019-02-06T07:42:10.685Z,101393.16
2019-02-06T07:44:52.980Z,101397.05
2019-02-06T07:47:32.118Z,101396.88
2019-02-06T07:50:16.490Z,101399.34
2019-02-06T07:52:55.724Z,101391.17
2019-02-06T07:55:35.135Z,101391.96
2019-02-06T07:58:14.249Z,101389.25
2019-02-06T08:00:53.586Z,101393.80
2019-02-06T08:03:32.983Z,101388.25
2019-02-06T08:06:12.115Z,101382.87
2019-02-06T08:08:51.306Z,101384.29
2019-02-06T08:11:32.281Z,101384.31
2019-02-06T08:14:11.443Z,101375.24
2019-02-06T08:16:50.894Z,101370.62
2019-02-06T08:19:30.324Z,101373.05
2019-02-06T08:22:09.711Z,101374.19
2019-02-06T08:24:49.705Z,101368.74
2019-02-06T08:27:29.582Z,101359.72
2019-02-06T08:30:23.826Z,101351.36
2019-02-06T08:33:03.666Z,101350.39
2019-02-06T08:35:43.905Z,101348.58
2019-02-06T08:38:23.723Z,101341.81
2019-02-06T08:41:03.482Z,101341.69
2019-02-06T08:43:43.639Z,101335.30
2019-02-06T08:46:23.375Z,101329.18
2019-02-06T08:49:03.319Z,101330.02
2019-02-06T08:51:43.166Z,101315.29
2019-02-06T08:54:22.692Z,101306.92
2019-02-06T08:57:02.142Z,101301.08
2019-02-06T08:59:41.840Z,101293.65
2019-02-06T09:02:21.486Z,101290.72
2019-02-06T09:05:01.049Z,101299.12
2019-02-06T09:07:40.636Z,101305.42
2019-02-06T09:10:22.155Z,101303.05
2019-02-06T09:13:02.126Z,101294.02
2019-02-06T09:15:41.641Z,101296.39
2019-02-06T09:18:24.512Z,101294.69
2019-02-06T09:21:08.632Z,101291.30
2019-02-06T09:23:56.020Z,101283.55
2019-02-06T09:26:52.582Z,101275.98
2019-02-06T09:29:29.696Z,101280.83
2019-02-06T09:32:09.693Z,101283.52
2019-02-06T09:34:51.612Z,101282.88
2019-02-06T09:37:31.049Z,101277.42
2019-02-06T09:40:13.148Z,101283.91
2019-02-06T09:42:52.734Z,101284.48
2019-02-06T09:45:32.842Z,101287.69
2019-02-06T09:48:12.782Z,101284.97
2019-02-06T09:50:52.481Z,101286.85
2019-02-06T09:53:32.063Z,101284.75
2019-02-06T09:56:11.826Z,101285.00
2019-02-06T09:58:51.377Z,101276.38
2019-02-06T10:01:34.169Z,101277.20
2019-02-06T10:04:13.655Z,101272.48
2019-02-06T10:06:54.447Z,101279.45
2019-02-06T10:09:34.248Z,101289.41
2019-02-06T10:12:13.987Z,101280.47
2019-02-06T10:14:54.553Z,101286.73
2019-02-06T10:17:36.174Z,101282.48
2019-02-06T10:20:17.549Z,101284.61
2019-02-06T10:22:57.261Z,101274.36
2019-02-06T10:25:37.212Z,101271.47
2019-02-06T10:28:16.821Z,101272.15
2019-02-06T10:30:56.281Z,101263.98
2019-02-06T10:33:35.675Z,101260.38
2019-02-06T10:36:15.321Z,101259.12
2019-02-06T10:38:55.469Z,101259.05
2019-02-06T10:41:34.903Z,101252.84
2019-02-06T10:44:14.385Z,101254.73
2019-02-06T10:46:53.886Z,101247.94
2019-02-06T10:49:33.424Z,101242.12
2019-02-06T10:52:12.926Z,101235.70
2019-02-06T10:54:52.502Z,101230.00
2019-02-06T10:57:32.145Z,101234.41
2019-02-06T11:00:35.680Z,101235.16
2019-02-06T11:03:15.485Z,101227.21
2019-02-06T11:05:55.020Z,101216.19
2019-02-06T11:08:34.530Z,101206.21
2019-02-06T11:11:14.208Z,101210.75
2019-02-06T11:13:53.715Z,101204.28
2019-02-06T11:16:33.232Z,101196.13
2019-02-06T11:19:14.099Z,101194.34
2019-02-06T11:21:53.594Z,101188.95
2019-02-06T11:24:34.704Z,101182.03
2019-02-06T11:27:14.829Z,101181.27
2019-02-06T11:29:54.582Z,101178.25
2019-02-06T11:32:34.059Z,101177.92
2019-02-06T11:35:14.148Z,101176.55
2019-02-06T11:37:53.784Z,101178.02
2019-02-06T11:40:33.318Z,101172.65
2019-02-06T11:43:12.936Z,101176.19
2019-02-06T11:45:52.432Z,101168.83
2019-02-06T11:48:33.059Z,101168.47
2019-02-06T11:51:12.630Z,101161.45
2019-02-06T11:53:52.112Z,101155.75
2019-02-06T11:56:31.713Z,101164.92
2019-02-06T11:59:11.225Z,101162.33
2019-02-06T12:01:52.882Z,101157.62
2019-02-06T12:04:32.307Z,101144.83
2019-02-06T12:07:11.911Z,101143.96
2019-02-06T12:09:51.992Z,101146.55
2019-02-06T12:12:31.504Z,101134.70
2019-02-06T12:15:16.001Z,101123.61
2019-02-06T12:17:55.816Z,101134.91
2019-02-06T12:20:35.718Z,101122.36
2019-02-06T12:23:15.305Z,101112.16
2019-02-06T12:25:57.657Z,101115.80
2019-02-06T12:28:37.351Z,101116.17
2019-02-06T12:31:17.150Z,101105.45
2019-02-06T12:33:57.065Z,101101.03
2019-02-06T12:36:36.943Z,101104.97
2019-02-06T12:39:17.741Z,101094.23
2019-02-06T12:41:57.272Z,101092.75
2019-02-06T12:44:37.213Z,101082.11
2019-02-06T12:47:16.796Z,101082.42
2019-02-06T12:49:56.336Z,101083.59
2019-02-06T12:52:35.863Z,101068.00
2019-02-06T12:55:21.459Z,101067.73
2019-02-06T12:58:02.082Z,101069.84
2019-02-06T13:00:44.900Z,101064.68
2019-02-06T13:03:24.302Z,101056.16
2019-02-06T13:06:03.908Z,101057.58
2019-02-06T13:08:43.630Z,101051.42
2019-02-06T13:11:23.524Z,101042.59
2019-02-06T13:14:05.376Z,101044.67
2019-02-06T13:16:45.327Z,101040.66
2019-02-06T13:19:25.065Z,101030.61
2019-02-06T13:22:05.532Z,101025.44
2019-02-06T13:24:44.945Z,101025.53
2019-02-06T13:27:24.742Z,101029.44
2019-02-06T13:30:07.395Z,101026.80
2019-02-06T13:32:47.261Z,101022.10
2019-02-06T13:35:27.101Z,101019.25
2019-02-06T13:38:07.283Z,101017.62
2019-02-06T13:40:47.296Z,101022.47
2019-02-06T13:43:27.028Z,101017.89
2019-02-06T13:46:09.953Z,101016.17
2019-02-06T13:48:49.675Z,101014.43
2019-02-06T13:51:29.440Z,101005.30
2019-02-06T13:54:09.146Z,101007.67
2019-02-06T13:56:48.909Z,100998.72
2019-02-06T13:59:29.127Z,100988.95
2019-02-06T14:02:09.239Z,100996.11
2019-02-06T14:04:48.971Z,100989.61
2019-02-06T14:07:30.671Z,100996.84
2019-02-06T14:10:13.048Z,100984.70
2019-02-06T14:12:52.945Z,100985.03
2019-02-06T14:15:39.762Z,100987.09
2019-02-06T14:18:19.662Z,100978.61
2019-02-06T14:20:59.556Z,100971.90
2019-02-06T14:24:13.660Z,100975.26
2019-02-06T14:27:31.604Z,100970.39
2019-02-06T14:30:48.618Z,100966.54
2019-02-06T14:34:21.251Z,100966.14
2019-02-06T14:37:46.718Z,100960.32
2019-02-06T14:41:08.749Z,100958.22
2019-02-06T14:44:34.756Z,100957.92
2019-02-06T14:47:42.238Z,100948.95
2019-02-06T14:50:40.467Z,100950.00
2019-02-06T14:54:01.577Z,100951.48
2019-02-06T14:57:52.692Z,100935.82
2019-02-06T15:01:06.972Z,100933.91
2019-02-06T15:04:56.870Z,100935.84
2019-02-06T15:08:43.560Z,100931.86
2019-02-06T15:11:38.883Z,100925.55
2019-02-06T15:14:53.731Z,100917.44
2019-02-06T15:18:23.367Z,100921.86
2019-02-06T15:21:43.668Z,100911.22
2019-02-06T15:25:27.731Z,100915.55
2019-02-06T15:29:06.958Z,100907.65
2019-02-06T15:32:31.520Z,100912.86
2019-02-06T15:35:48.274Z,100915.40
2019-02-06T15:39:02.090Z,100915.36
2019-02-06T15:42:31.379Z,100913.37
2019-02-06T15:46:14.889Z,100910.93
2019-02-06T15:49:49.552Z,100909.12
2019-02-06T15:53:26.108Z,100905.70
2019-02-06T15:56:59.551Z,100906.11
2019-02-06T16:00:20.800Z,100901.77
2019-02-06T16:04:33.083Z,100896.27
2019-02-06T16:07:34.970Z,100899.84
2019-02-06T16:10:55.960Z,100895.22
2019-02-06T16:14:54.247Z,100892.40
2019-02-06T16:18:16.727Z,100892.80
2019-02-06T16:22:03.774Z,100884.75
2019-02-06T16:25:48.304Z,100891.15
2019-02-06T16:29:16.563Z,100887.36
2019-02-06T16:32:39.574Z,100883.40
2019-02-06T16:35:57.983Z,100875.99
2019-02-06T16:38:54.927Z,100877.11
2019-02-06T16:42:38.703Z,100876.09
2019-02-06T16:46:06.479Z,100878.13
2019-02-06T16:49:37.783Z,100877.59
2019-02-06T16:53:04.715Z,100878.30
2019-02-06T16:56:49.054Z,100875.06
2019-02-06T16:59:52.538Z,100872.73
2019-02-06T17:03:35.910Z,100876.64
2019-02-06T17:06:51.948Z,100876.41
2019-02-06T17:10:16.579Z,100871.46
2019-02-06T17:13:51.127Z,100879.46
2019-02-06T17:16:51.452Z,100877.05
2019-02-06T17:19:50.568Z,100870.09
2019-02-06T17:23:16.666Z,100865.25
2019-02-06T17:26:27.735Z,100865.20
2019-02-06T17:29:53.206Z,100865.20
2019-02-06T17:33:40.978Z,100863.80
2019-02-06T17:37:29.893Z,100872.25
2019-02-06T17:40:33.171Z,100871.00
2019-02-06T17:44:17.789Z,100866.23
2019-02-06T17:47:25.202Z,100861.48
2019-02-06T17:50:51.088Z,100864.99
2019-02-06T17:53:51.106Z,100872.42
2019-02-06T17:56:30.390Z,100871.22
2019-02-06T17:59:09.722Z,100867.20
2019-02-06T18:01:55.169Z,100872.38
2019-02-06T18:04:40.679Z,100866.58
2019-02-06T18:07:19.958Z,100871.55
2019-02-06T18:09:59.284Z,100869.95
2019-02-06T18:12:38.929Z,100869.16
2019-02-06T18:15:18.289Z,100869.29
2019-02-06T18:18:01.811Z,100874.98
2019-02-06T18:20:41.979Z,100873.61
2019-02-06T18:23:21.545Z,100869.09
2019-02-06T18:26:00.781Z,100863.14
2019-02-06T18:28:40.958Z,100867.97
2019-02-06T18:31:23.005Z,100861.64
2019-02-06T18:34:05.740Z,100861.91
2019-02-06T18:36:45.073Z,100860.13
2019-02-06T18:39:24.831Z,100864.88
2019-02-06T18:42:04.737Z,100868.10
2019-02-06T18:44:44.086Z,100859.52
2019-02-06T18:47:23.962Z,100857.06
2019-02-06T18:50:03.484Z,100856.02
2019-02-06T18:52:42.851Z,100863.75
2019-02-06T18:55:22.355Z,100858.17
2019-02-06T18:58:01.569Z,100854.24
2019-02-06T19:00:41.226Z,100844.56
2019-02-06T19:03:28.647Z,100845.03
2019-02-06T19:06:08.186Z,100852.18
2019-02-06T19:08:47.505Z,100846.92
2019-02-06T19:11:26.739Z,100841.56
2019-02-06T19:14:06.305Z,100846.17
2019-02-06T19:16:46.045Z,100848.44
2019-02-06T19:19:25.891Z,100844.84
2019-02-06T19:22:05.505Z,100837.02
2019-02-06T19:24:44.864Z,100844.30
2019-02-06T19:27:24.640Z,100836.38
2019-02-06T19:30:04.431Z,100839.14
2019-02-06T19:32:44.828Z,100835.27
2019-02-06T19:35:25.082Z,100831.02
2019-02-06T19:38:05.611Z,100831.56
2019-02-06T19:40:44.876Z,100823.52
2019-02-06T19:43:24.101Z,100821.41
2019-02-06T19:46:04.062Z,100814.33
2019-02-06T19:48:43.430Z,100809.41
2019-02-06T19:51:22.809Z,100807.17
2019-02-06T19:54:02.252Z,100802.91
2019-02-06T19:56:42.791Z,100801.19
2019-02-06T19:59:22.302Z,100800.88
2019-02-06T20:02:01.685Z,100797.36
2019-02-06T20:04:40.855Z,100797.41
2019-02-06T20:07:21.353Z,100793.09
2019-02-06T20:10:00.602Z,100787.66
2019-02-06T20:12:41.032Z,100780.05
2019-02-06T20:15:21.640Z,100788.75
2019-02-06T20:18:01.218Z,100786.28
2019-02-06T20:20:43.216Z,100780.19
2019-02-06T20:23:24.852Z,100772.65
2019-02-06T20:26:04.214Z,100776.33
2019-02-06T20:28:43.445Z,100773.38
2019-02-06T20:31:26.388Z,100770.86
2019-02-06T20:34:08.504Z,100765.50
2019-02-06T20:36:47.785Z,100766.45
2019-02-06T20:39:30.287Z,100759.80
2019-02-06T20:42:09.300Z,100758.94
2019-02-06T20:44:48.530Z,100753.45
2019-02-06T20:47:30.654Z,100755.39
2019-02-06T20:50:15.807Z,100752.05
2019-02-06T20:52:56.746Z,100752.14
2019-02-06T20:55:36.008Z,100746.09
2019-02-06T20:58:15.073Z,100745.30
2019-02-06T21:00:54.235Z,100741.17
2019-02-06T21:03:35.045Z,100741.52
2019-02-06T21:06:14.472Z,100741.58
2019-02-06T21:08:53.681Z,100741.52
2019-02-06T21:11:32.957Z,100747.80
2019-02-06T21:14:12.308Z,100744.34
2019-02-06T21:16:51.648Z,100745.42
2019-02-06T21:19:34.015Z,100732.09
2019-02-06T21:22:16.818Z,100731.77
2019-02-06T21:24:57.278Z,100727.86
2019-02-06T21:27:36.648Z,100731.94
2019-02-06T21:30:24.877Z,100729.50
2019-02-06T21:33:04.648Z,100730.98
2019-02-06T21:35:43.873Z,100733.45
2019-02-06T21:38:23.068Z,100733.42
2019-02-06T21:41:03.407Z,100731.20
2019-02-06T21:43:55.280Z,100726.27
2019-02-06T21:46:31.734Z,100717.66
2019-02-06T21:49:12.484Z,100715.52
2019-02-06T21:51:51.658Z,100712.61
2019-02-06T21:54:30.920Z,100712.92
2019-02-06T21:57:10.097Z,100708.33
2019-02-06T21:59:49.417Z,100707.38
2019-02-06T22:02:42.274Z,100702.94
2019-02-06T22:05:21.588Z,100707.76
2019-02-06T22:08:01.350Z,100698.70
2019-02-06T22:10:40.671Z,100691.05
2019-02-06T22:13:36.955Z,100698.59
2019-02-06T22:16:16.290Z,100696.42
2019-02-06T22:18:55.573Z,100698.82
2019-02-06T22:21:34.933Z,100700.12
2019-02-06T22:24:14.453Z,100704.70
2019-02-06T22:26:53.565Z,100704.52
2019-02-06T22:29:35.276Z,100699.34
2019-02-06T22:32:14.634Z,100702.63
2019-02-06T22:34:54.103Z,100697.71
2019-02-06T22:37:33.406Z,100695.56
2019-02-06T22:40:16.257Z,100682.73
2019-02-06T22:42:55.588Z,100681.58
2019-02-06T22:45:34.890Z,100686.68
2019-02-06T22:48:14.669Z,100686.30
2019-02-06T22:50:54.077Z,100685.16
2019-02-06T22:53:33.408Z,100685.88
2019-02-06T22:56:14.284Z,100688.59
2019-02-06T22:58:54.899Z,100683.17
2019-02-06T23:01:52.513Z,100684.87
2019-02-06T23:04:31.800Z,100682.83
2019-02-06T23:07:11.056Z,100682.45
2019-02-06T23:09:50.493Z,100681.39
2019-02-06T23:12:29.917Z,100672.72
2019-02-06T23:15:09.529Z,100676.00
2019-02-06T23:17:48.966Z,100670.38
2019-02-06T23:20:28.290Z,100663.52
2019-02-06T23:23:07.739Z,100662.36
2019-02-06T23:25:46.895Z,100652.00
2019-02-06T23:28:26.213Z,100644.94
2019-02-06T23:31:05.935Z,100644.11
2019-02-06T23:33:45.393Z,100640.19
2019-02-06T23:36:25.249Z,100639.77
2019-02-06T23:39:11.539Z,100640.64
2019-02-06T23:41:50.876Z,100630.95
2019-02-06T23:44:32.468Z,100627.75
2019-02-06T23:47:12.232Z,100622.30
2019-02-06T23:49:51.626Z,100615.30
2019-02-06T23:52:30.938Z,100612.11
2019-02-06T23:55:10.723Z,100609.25
2019-02-06T23:57:50.145Z,100607.16
